Flight Track Log - Related Links

Times and Time Zones

All times are in EDT time to prevent confusion due to time zone crossing. See the EJA941 flight status page for this flight to view local times or setup timezone preferences in your user account.

Time Position Orientation Groundspeed Altitude Reporting Facility
EDT Latitude Longitude Course Direction KTS MPH feet Rate Location/Type
Tue 07:51:23 AM 35.3831 -97.5944 188° South 154 177 1,800  Level Fort Worth Center
Tue 07:51:41 AM 35.3686 -97.5969 188° South 159 183 2,800 2,769 Climbing Fort Worth Center
Tue 07:52:41 AM 35.3142 -97.6069 189° South 230 265 5,400 2,533 Climbing Fort Worth Center
Tue 07:53:56 AM 35.2328 -97.6678 211° Southwest 289 333 8,500 2,578 Climbing Fort Worth Center
Tue 07:54:56 AM 35.1639 -97.7183 211° Southwest 300 345 11,200 2,050 Climbing Fort Worth Center
Tue 07:55:56 AM 35.0867 -97.7814 214° Southwest 314 361 12,600 1,550 Climbing Fort Worth Center
Tue 07:56:56 AM 35.0050 -97.8419 211° Southwest 334 384 14,300 1,450 Climbing Fort Worth Center
Tue 07:57:56 AM 34.9150 -97.9072 211° Southwest 360 414 15,500 1,300 Climbing Fort Worth Center
Tue 07:58:56 AM 34.8231 -97.9775 212° Southwest 378 435 16,900 1,250 Climbing Fort Worth Center
Tue 07:59:56 AM 34.7308 -98.0453 211° Southwest 390 449 18,000 1,200 Climbing Fort Worth Center
Tue 08:00:56 AM 34.6344 -98.1175 212° Southwest 401 461 19,300 1,400 Climbing Fort Worth Center
Tue 08:01:56 AM 34.5464 -98.1825 211° Southwest 412 474 20,800 1,500 Climbing Fort Worth Center
Tue 08:02:56 AM 34.4458 -98.2572 212° Southwest 420 483 22,300 1,550 Climbing Fort Worth Center
Tue 08:03:56 AM 34.3325 -98.3439 212° Southwest 433 498 23,900 1,500 Climbing Fort Worth Center
Tue 08:04:56 AM 34.2297 -98.4208 212° Southwest 439 505 25,300 1,400 Climbing Fort Worth Center
Tue 08:05:56 AM 34.1392 -98.5200 222° Southwest 439 505 26,700 1,350 Climbing Fort Worth Center
Tue 08:06:56 AM 34.0711 -98.6472 237° Southwest 443 510 28,000 650 Climbing Fort Worth Center
Tue 08:07:56 AM 33.9989 -98.7764 236° Southwest 459 528 28,000  Level Fort Worth Center
Tue 08:08:56 AM 33.9222 -98.9103 235° Southwest 476 548 28,000  Level Fort Worth Center
Tue 08:09:56 AM 33.8414 -99.0464 234° Southwest 492 566 28,000  Level Fort Worth Center
Tue 08:10:56 AM 33.7642 -99.1850 236° Southwest 502 578 28,000  Level Fort Worth Center
Tue 08:11:56 AM 33.6828 -99.3231 235° Southwest 508 585 28,000  Level Fort Worth Center
Tue 08:12:56 AM 33.6036 -99.4611 235° Southwest 508 585 28,000  Level Fort Worth Center
Tue 08:13:56 AM 33.5239 -99.5961 235° Southwest 508 585 28,000  Level Fort Worth Center
Tue 08:14:56 AM 33.4444 -99.7336 235° Southwest 508 585 28,000  Level Fort Worth Center
Tue 08:15:56 AM 33.3603 -99.8706 234° Southwest 508 585 28,000  Level Fort Worth Center
Tue 08:16:56 AM 33.2825 -100.0075 236° Southwest 508 585 28,000  Level Fort Worth Center
Tue 08:17:56 AM 33.2003 -100.1442 234° Southwest 508 585 28,000  Level Fort Worth Center
Tue 08:18:56 AM 33.1200 -100.2806 235° Southwest 508 585 28,000  Level Fort Worth Center
Tue 08:19:56 AM 33.0375 -100.4167 234° Southwest 508 585 28,000  Level Fort Worth Center
Tue 08:20:56 AM 32.9569 -100.5528 235° Southwest 508 585 28,000  Level Fort Worth Center
Tue 08:21:56 AM 32.8742 -100.6883 234° Southwest 508 585 28,000 -100 Level Fort Worth Center
Tue 08:22:56 AM 32.7911 -100.8261 234° Southwest 514 592 27,800 -1,250 Descending Fort Worth Center
Tue 08:23:56 AM 32.7122 -100.9564 234° Southwest 509 586 25,500 -2,450 Descending Fort Worth Center
Tue 08:24:56 AM 32.6378 -101.0792 234° Southwest 488 562 22,900 -2,500 Descending Fort Worth Center
Tue 08:25:56 AM 32.5653 -101.1994 234° Southwest 476 548 20,500 -2,300 Descending Fort Worth Center
Tue 08:26:56 AM 32.4911 -101.3097 231° Southwest 464 534 18,300 -2,300 Descending Fort Worth Center
Tue 08:27:56 AM 32.4247 -101.4225 235° Southwest 459 528 15,900 -2,150 Descending Fort Worth Center
Tue 08:28:56 AM 32.3586 -101.5328 235° Southwest 440 506 14,000 -950 Descending Fort Worth Center
Tue 08:29:56 AM 32.2967 -101.6356 235° Southwest 413 475 14,000 -500 Level Fort Worth Center
Tue 08:30:56 AM 32.2414 -101.7264 234° Southwest 377 434 13,000 -1,600 Descending Fort Worth Center
Tue 08:31:56 AM 32.1947 -101.8100 237° Southwest 336 387 10,800 -2,200 Descending Fort Worth Center
Tue 08:32:56 AM 32.1625 -101.8992 247° West 308 354 8,600 -2,000 Descending Fort Worth Center
Tue 08:33:56 AM 32.1322 -101.9811 246° West 297 342 6,800 -1,350 Descending Fort Worth Center
Tue 08:34:56 AM 32.1064 -102.0631 250° West 285 328 5,900 -550 Descending Fort Worth Center
Tue 08:35:56 AM 32.0803 -102.1475 250° West 267 307 5,700 -550 Descending Fort Worth Center
Tue 08:36:56 AM 32.0569 -102.2078 245° Southwest 234 269 4,800 -800 Descending Fort Worth Center
Tue 08:37:56 AM 32.0172 -102.2106 183° South 167 192 4,100 -800 Descending Fort Worth Center
Tue 08:38:56 AM 31.9819 -102.2086 177° South 135 155 3,200 -650 Descending Fort Worth Center
Tue 08:39:56 AM 31.9486 -102.2044 174° South 124 143 2,800 -200 Descending Fort Worth Center
Tue 08:40:56 AM 31.9403 -102.2039 177° South 96 110 2,800  Level Fort Worth Center
Tue 08:41:56 AM 31.9258 -102.2033 178° South 71 82 2,800  Level Fort Worth Center

Login

Don't have an account? Register now (free) for customized features, flight alerts, and more!